createdAt,value
2022-11-10T00:00:13.664Z,10.96
2022-11-10T00:03:19.729Z,10.90
2022-11-10T00:06:26.064Z,10.76
2022-11-10T00:09:31.136Z,10.77
2022-11-10T00:12:38.384Z,10.77
2022-11-10T00:16:01.454Z,10.87
2022-11-10T00:19:07.032Z,10.90
2022-11-10T00:22:12.704Z,10.62
2022-11-10T00:25:18.042Z,10.89
2022-11-10T00:28:24.910Z,10.91
2022-11-10T00:31:30.839Z,10.80
2022-11-10T00:34:37.005Z,10.75
2022-11-10T00:37:42.710Z,10.89
2022-11-10T00:40:49.250Z,10.84
2022-11-10T00:43:56.253Z,11.08
2022-11-10T00:47:01.809Z,11.13
2022-11-10T00:50:08.402Z,11.13
2022-11-10T00:53:13.930Z,11.06
2022-11-10T00:56:19.996Z,10.93
2022-11-10T00:59:26.593Z,11.22
2022-11-10T01:02:32.637Z,11.15
2022-11-10T01:05:38.718Z,11.19
2022-11-10T01:08:44.745Z,11.15
2022-11-10T01:11:50.505Z,11.39
2022-11-10T01:14:57.591Z,11.29
2022-11-10T01:18:03.242Z,11.34
2022-11-10T01:21:10.411Z,11.46
2022-11-10T01:24:20.581Z,11.46
2022-11-10T01:27:26.384Z,11.43
2022-11-10T01:30:33.553Z,11.53
2022-11-10T01:33:39.638Z,11.45
2022-11-10T01:36:44.910Z,11.50
2022-11-10T01:39:50.470Z,11.48
2022-11-10T01:42:58.587Z,11.41
2022-11-10T01:46:07.305Z,11.50
2022-11-10T01:49:14.728Z,11.41
2022-11-10T01:52:20.300Z,11.53
2022-11-10T01:55:26.897Z,11.55
2022-11-10T01:58:40.030Z,11.69
2022-11-10T02:01:49.961Z,11.63
2022-11-10T02:04:56.952Z,11.62
2022-11-10T02:08:03.614Z,11.68
2022-11-10T02:11:09.281Z,11.68
2022-11-10T02:14:16.091Z,11.73
2022-11-10T02:17:22.839Z,11.77
2022-11-10T02:20:28.433Z,11.77
2022-11-10T02:23:56.238Z,11.82
2022-11-10T02:27:01.891Z,11.86
2022-11-10T02:30:08.387Z,11.84
2022-11-10T02:33:13.700Z,11.88
2022-11-10T02:36:19.601Z,11.78
2022-11-10T02:39:26.794Z,11.91
2022-11-10T02:42:32.542Z,11.85
2022-11-10T02:45:42.184Z,11.85
2022-11-10T02:48:48.086Z,11.80
2022-11-10T02:51:54.962Z,11.82
2022-11-10T02:55:02.003Z,11.87
2022-11-10T02:58:07.396Z,11.78
2022-11-10T03:01:13.084Z,11.98
2022-11-10T03:04:18.512Z,11.90
2022-11-10T03:07:24.396Z,11.87
2022-11-10T03:10:31.878Z,11.69
2022-11-10T03:13:58.992Z,11.80
2022-11-10T03:17:02.474Z,11.87
2022-11-10T03:20:08.872Z,11.93
2022-11-10T03:23:14.486Z,11.83
2022-11-10T03:26:22.058Z,11.84
2022-11-10T03:29:27.398Z,11.77
2022-11-10T03:32:33.136Z,11.74
2022-11-10T03:35:38.915Z,11.74
2022-11-10T03:38:44.776Z,11.74
2022-11-10T03:41:51.924Z,11.86
2022-11-10T03:44:57.656Z,11.80
2022-11-10T03:48:03.313Z,11.84
2022-11-10T03:51:09.151Z,11.78
2022-11-10T03:54:14.474Z,11.75
2022-11-10T03:57:21.613Z,11.73
2022-11-10T04:00:27.177Z,11.87
2022-11-10T04:03:32.886Z,11.76
2022-11-10T04:06:56.304Z,11.73
2022-11-10T04:10:01.757Z,11.84
2022-11-10T04:13:26.290Z,11.89
2022-11-10T04:16:32.054Z,11.84
2022-11-10T04:19:37.248Z,11.88
2022-11-10T04:22:56.610Z,11.63
2022-11-10T04:26:21.900Z,11.72
2022-11-10T04:29:29.094Z,11.75
2022-11-10T04:32:34.372Z,11.77
2022-11-10T04:35:40.216Z,11.67
2022-11-10T04:38:46.210Z,11.48
2022-11-10T04:41:51.668Z,11.29
2022-11-10T04:44:58.670Z,11.35
2022-11-10T04:48:03.904Z,11.34
2022-11-10T04:51:09.445Z,11.31
2022-11-10T04:54:17.440Z,11.22
2022-11-10T04:57:23.096Z,11.21
2022-11-10T05:00:30.929Z,11.33
2022-11-10T05:03:36.468Z,11.40
2022-11-10T05:06:42.319Z,11.24
2022-11-10T05:09:47.950Z,11.21
2022-11-10T05:12:56.567Z,11.09
2022-11-10T05:16:04.675Z,11.08
2022-11-10T05:19:10.200Z,10.99
2022-11-10T05:22:15.968Z,10.81
2022-11-10T05:25:21.621Z,10.94
2022-11-10T05:28:27.448Z,10.93
2022-11-10T05:31:36.830Z,10.78
2022-11-10T05:34:42.573Z,10.55
2022-11-10T05:37:48.603Z,10.47
2022-11-10T05:40:54.712Z,10.65
2022-11-10T05:44:00.615Z,10.56
2022-11-10T05:47:07.407Z,10.38
2022-11-10T05:50:13.468Z,10.05
2022-11-10T05:53:19.348Z,10.36
2022-11-10T05:56:24.981Z,10.32
2022-11-10T05:59:30.673Z,10.12
2022-11-10T06:02:37.800Z,10.07
2022-11-10T06:05:43.446Z,9.95
2022-11-10T06:08:48.831Z,9.81
2022-11-10T06:11:54.553Z,9.73
2022-11-10T06:14:59.921Z,9.79
2022-11-10T06:18:06.729Z,9.73
2022-11-10T06:21:11.871Z,9.69
2022-11-10T06:24:17.634Z,9.53
2022-11-10T06:27:23.449Z,9.44
2022-11-10T06:30:30.467Z,9.53
2022-11-10T06:33:37.218Z,9.58
2022-11-10T06:36:43.072Z,9.42
2022-11-10T06:39:48.688Z,9.46
2022-11-10T06:42:54.318Z,9.36
2022-11-10T06:45:59.959Z,9.32
2022-11-10T06:49:07.390Z,9.27
2022-11-10T06:52:12.636Z,9.39
2022-11-10T06:55:18.270Z,9.42
2022-11-10T06:58:23.873Z,9.46
2022-11-10T07:01:29.756Z,9.75
2022-11-10T07:04:36.533Z,9.73
2022-11-10T07:07:42.513Z,9.75
2022-11-10T07:10:53.318Z,9.94
2022-11-10T07:13:58.669Z,10.02
2022-11-10T07:17:04.232Z,10.17
2022-11-10T07:20:12.018Z,10.20
2022-11-10T07:23:17.454Z,10.26
2022-11-10T07:26:22.934Z,10.18
2022-11-10T07:29:28.234Z,10.23
2022-11-10T07:32:33.661Z,10.36
2022-11-10T07:35:40.956Z,10.23
2022-11-10T07:38:46.703Z,10.21
2022-11-10T07:41:53.058Z,10.16
2022-11-10T07:44:58.578Z,10.28
2022-11-10T07:48:06.147Z,10.22
2022-11-10T07:51:12.867Z,10.26
2022-11-10T07:54:18.282Z,10.29
2022-11-10T07:57:23.803Z,10.32
2022-11-10T08:00:29.992Z,10.17
2022-11-10T08:03:35.825Z,10.52
2022-11-10T08:06:42.522Z,10.69
2022-11-10T08:09:48.192Z,10.73
2022-11-10T08:12:58.542Z,10.89
2022-11-10T08:16:04.147Z,10.72
2022-11-10T08:19:09.884Z,10.78
2022-11-10T08:22:16.968Z,10.94
2022-11-10T08:25:22.774Z,10.98
2022-11-10T08:28:29.367Z,10.98
2022-11-10T08:31:35.270Z,11.06
2022-11-10T08:34:41.068Z,10.98
2022-11-10T08:37:48.096Z,10.98
2022-11-10T08:40:53.713Z,11.21
2022-11-10T08:44:00.145Z,11.46
2022-11-10T08:47:05.595Z,11.35
2022-11-10T08:50:11.849Z,11.09
2022-11-10T08:53:21.199Z,11.53
2022-11-10T08:56:27.241Z,11.55
2022-11-10T08:59:32.860Z,11.27
2022-11-10T09:02:38.486Z,11.67
2022-11-10T09:05:44.524Z,11.86
2022-11-10T09:08:51.507Z,11.83
2022-11-10T09:11:57.355Z,11.93
2022-11-10T09:15:03.017Z,11.98
2022-11-10T09:18:09.743Z,12.03
2022-11-10T09:21:15.282Z,11.97
2022-11-10T09:24:24.908Z,11.86
2022-11-10T09:27:37.082Z,11.80
2022-11-10T09:30:43.699Z,11.74
2022-11-10T09:33:49.333Z,11.72
2022-11-10T09:36:54.959Z,11.76
2022-11-10T09:40:02.184Z,11.93
2022-11-10T09:43:16.270Z,11.87
2022-11-10T09:46:27.876Z,12.01
2022-11-10T09:49:37.778Z,11.95
2022-11-10T09:52:45.250Z,11.99
2022-11-10T09:55:57.699Z,11.95
2022-11-10T09:59:07.568Z,12.12
2022-11-10T10:02:22.937Z,12.20
2022-11-10T10:06:02.497Z,12.25
2022-11-10T10:09:18.950Z,12.03
2022-11-10T10:12:47.144Z,12.38
2022-11-10T10:16:03.553Z,12.51
2022-11-10T10:19:22.304Z,12.79
2022-11-10T10:22:44.004Z,13.40
2022-11-10T10:25:51.204Z,14.10
2022-11-10T10:29:02.771Z,14.74
2022-11-10T10:32:13.551Z,14.31
2022-11-10T10:35:20.092Z,13.85
2022-11-10T10:38:32.179Z,13.49
2022-11-10T10:41:38.549Z,13.39
2022-11-10T10:45:14.717Z,13.10
2022-11-10T10:48:29.040Z,12.97
2022-11-10T10:51:35.012Z,12.94
2022-11-10T10:54:41.464Z,12.72
2022-11-10T10:57:52.858Z,12.75
2022-11-10T11:01:06.279Z,12.82
2022-11-10T11:04:29.008Z,12.87
2022-11-10T11:07:34.671Z,13.00
2022-11-10T11:10:46.860Z,12.89
2022-11-10T11:13:52.476Z,13.10
2022-11-10T11:17:01.398Z,13.14
2022-11-10T11:20:14.472Z,13.30
2022-11-10T11:23:40.835Z,13.31
2022-11-10T11:26:53.664Z,13.42
2022-11-10T11:30:06.851Z,13.46
2022-11-10T11:33:26.403Z,13.53
2022-11-10T11:36:42.859Z,13.68
2022-11-10T11:40:01.657Z,13.57
2022-11-10T11:43:29.992Z,13.34
2022-11-10T11:46:48.998Z,13.13
2022-11-10T11:50:14.422Z,13.11
2022-11-10T11:53:34.479Z,12.86
2022-11-10T11:56:43.695Z,12.67
2022-11-10T12:00:02.221Z,12.72
2022-11-10T12:03:31.106Z,12.81
2022-11-10T12:06:49.690Z,13.13
2022-11-10T12:10:03.863Z,13.26
2022-11-10T12:13:22.601Z,13.43
2022-11-10T12:16:31.527Z,13.43
2022-11-10T12:19:47.760Z,13.33
2022-11-10T12:23:05.389Z,13.29
2022-11-10T12:26:20.603Z,13.32
2022-11-10T12:29:35.144Z,13.25
2022-11-10T12:32:46.733Z,13.31
2022-11-10T12:35:56.721Z,13.24
2022-11-10T12:39:13.701Z,13.32
2022-11-10T12:42:23.949Z,13.30
2022-11-10T12:45:33.855Z,13.44
2022-11-10T12:48:47.456Z,13.44
2022-11-10T12:52:02.788Z,13.60
2022-11-10T12:55:13.843Z,13.75
2022-11-10T12:58:20.384Z,13.74
2022-11-10T13:01:26.326Z,13.73
2022-11-10T13:04:40.201Z,13.69
2022-11-10T13:07:49.477Z,13.56
2022-11-10T13:11:03.799Z,13.48
2022-11-10T13:14:26.333Z,13.49
2022-11-10T13:17:54.654Z,13.71
2022-11-10T13:21:01.273Z,13.84
2022-11-10T13:24:25.454Z,13.84
2022-11-10T13:27:55.108Z,13.64
2022-11-10T13:31:00.820Z,13.72
2022-11-10T13:34:09.886Z,13.61
2022-11-10T13:37:50.987Z,13.68
2022-11-10T13:41:23.707Z,13.60
2022-11-10T13:44:37.452Z,13.54
2022-11-10T13:47:55.843Z,13.56
2022-11-10T13:51:13.848Z,13.49
2022-11-10T13:54:38.537Z,13.60
2022-11-10T13:58:01.007Z,13.55
2022-11-10T14:01:28.212Z,13.67
2022-11-10T14:04:42.771Z,13.81
2022-11-10T14:07:48.332Z,13.72
2022-11-10T14:10:59.605Z,13.53
2022-11-10T14:14:13.856Z,13.49
2022-11-10T14:17:25.397Z,13.45
2022-11-10T14:20:38.866Z,13.53
2022-11-10T14:23:48.893Z,13.37
2022-11-10T14:26:56.009Z,13.25
2022-11-10T14:30:07.699Z,13.33
2022-11-10T14:33:16.055Z,13.21
2022-11-10T14:36:22.018Z,13.13
2022-11-10T14:39:30.516Z,12.98
2022-11-10T14:42:35.983Z,13.10
2022-11-10T14:45:52.004Z,13.22
2022-11-10T14:49:00.590Z,13.21
2022-11-10T14:52:06.674Z,13.28
2022-11-10T14:55:18.671Z,13.26
2022-11-10T14:58:29.831Z,13.24
2022-11-10T15:01:38.100Z,13.11
2022-11-10T15:04:46.356Z,13.07
2022-11-10T15:07:55.345Z,13.05
2022-11-10T15:11:01.247Z,13.14
2022-11-10T15:14:27.532Z,13.07
2022-11-10T15:17:45.948Z,12.94
2022-11-10T15:21:02.212Z,12.92
2022-11-10T15:24:08.443Z,12.77
2022-11-10T15:27:25.093Z,12.66
2022-11-10T15:30:31.288Z,12.61
2022-11-10T15:33:39.165Z,12.51
2022-11-10T15:36:45.956Z,12.51
2022-11-10T15:39:51.362Z,12.54
2022-11-10T15:43:14.534Z,12.41
2022-11-10T15:46:22.938Z,12.28
2022-11-10T15:49:31.591Z,12.13
2022-11-10T15:52:39.597Z,12.02
2022-11-10T15:55:46.001Z,11.96
2022-11-10T15:58:56.578Z,11.82
2022-11-10T16:02:21.643Z,11.60
2022-11-10T16:05:27.254Z,11.47
2022-11-10T16:08:34.789Z,11.13
2022-11-10T16:11:43.782Z,11.32
2022-11-10T16:14:50.890Z,11.23
2022-11-10T16:17:56.667Z,11.27
2022-11-10T16:21:02.216Z,11.18
2022-11-10T16:24:09.596Z,11.11
2022-11-10T16:27:16.098Z,11.19
2022-11-10T16:30:21.887Z,11.15
2022-11-10T16:33:31.098Z,11.09
2022-11-10T16:36:36.671Z,11.06
2022-11-10T16:39:43.443Z,11.20
2022-11-10T16:42:48.831Z,11.03
2022-11-10T16:45:56.778Z,11.02
2022-11-10T16:49:05.039Z,11.00
2022-11-10T16:52:15.871Z,11.10
2022-11-10T16:55:23.025Z,10.82
2022-11-10T16:58:28.626Z,11.16
2022-11-10T17:01:36.995Z,10.96
2022-11-10T17:04:42.831Z,10.91
2022-11-10T17:07:49.400Z,10.86
2022-11-10T17:10:56.976Z,10.90
2022-11-10T17:14:02.744Z,11.25
2022-11-10T17:17:15.647Z,11.07
2022-11-10T17:20:24.150Z,11.11
2022-11-10T17:23:30.082Z,11.06
2022-11-10T17:26:36.912Z,11.10
2022-11-10T17:29:43.284Z,11.22
2022-11-10T17:33:05.714Z,11.32
2022-11-10T17:36:15.546Z,11.44
2022-11-10T17:39:22.648Z,11.47
2022-11-10T17:42:29.741Z,11.66
2022-11-10T17:45:35.127Z,11.64
2022-11-10T17:48:40.456Z,11.67
2022-11-10T17:51:46.439Z,11.79
2022-11-10T17:54:52.038Z,11.74
2022-11-10T17:57:58.699Z,11.74
2022-11-10T18:01:08.561Z,11.99
2022-11-10T18:04:14.738Z,11.52
2022-11-10T18:07:20.329Z,12.00
2022-11-10T18:10:26.787Z,12.00
2022-11-10T18:13:34.646Z,11.99
2022-11-10T18:16:42.165Z,12.06
2022-11-10T18:19:48.844Z,12.06
2022-11-10T18:22:54.500Z,11.92
2022-11-10T18:26:05.100Z,12.07
2022-11-10T18:29:12.342Z,12.22
2022-11-10T18:32:20.073Z,12.12
2022-11-10T18:35:27.256Z,12.09
2022-11-10T18:38:33.731Z,12.17
2022-11-10T18:41:52.531Z,12.12
2022-11-10T18:45:00.671Z,12.14
2022-11-10T18:48:08.203Z,12.01
2022-11-10T18:51:14.351Z,12.11
2022-11-10T18:54:20.838Z,12.17
2022-11-10T18:57:27.389Z,12.18
2022-11-10T19:00:35.468Z,12.15
2022-11-10T19:03:42.859Z,12.15
2022-11-10T19:06:49.641Z,12.14
2022-11-10T19:09:55.650Z,12.31
2022-11-10T19:13:02.462Z,12.31
2022-11-10T19:16:12.332Z,12.22
2022-11-10T19:19:20.347Z,12.26
2022-11-10T19:22:26.750Z,12.32
2022-11-10T19:25:32.980Z,12.37
2022-11-10T19:28:38.687Z,12.27
2022-11-10T19:31:46.104Z,12.21
2022-11-10T19:34:51.791Z,12.36
2022-11-10T19:37:57.338Z,12.34
2022-11-10T19:41:06.102Z,12.32
2022-11-10T19:44:11.304Z,12.37
2022-11-10T19:47:18.138Z,12.41
2022-11-10T19:50:24.004Z,11.96
2022-11-10T19:53:30.796Z,12.42
2022-11-10T19:56:36.193Z,12.42
2022-11-10T19:59:41.489Z,12.39
2022-11-10T20:02:49.799Z,12.39
2022-11-10T20:05:59.892Z,12.50
2022-11-10T20:09:05.415Z,12.39
2022-11-10T20:12:16.216Z,12.44
2022-11-10T20:15:21.938Z,12.47
2022-11-10T20:18:29.071Z,12.40
2022-11-10T20:21:34.899Z,12.38
2022-11-10T20:24:40.324Z,12.38
2022-11-10T20:27:46.393Z,12.33
2022-11-10T20:30:51.825Z,12.43
2022-11-10T20:33:58.890Z,12.45
2022-11-10T20:37:09.646Z,12.50
2022-11-10T20:40:42.302Z,12.36
2022-11-10T20:43:41.028Z,12.31
2022-11-10T20:46:54.496Z,12.41
2022-11-10T20:50:02.432Z,12.34
2022-11-10T20:53:09.536Z,12.41
2022-11-10T20:56:16.051Z,12.54
2022-11-10T20:59:21.839Z,12.48
2022-11-10T21:02:27.370Z,12.41
2022-11-10T21:05:34.117Z,12.52
2022-11-10T21:08:39.642Z,12.54
2022-11-10T21:12:02.474Z,12.50
2022-11-10T21:15:08.985Z,12.53
2022-11-10T21:18:14.571Z,12.63
2022-11-10T21:21:23.877Z,12.26
2022-11-10T21:24:29.719Z,12.46
2022-11-10T21:27:35.135Z,12.56
2022-11-10T21:30:40.729Z,12.43
2022-11-10T21:33:46.753Z,12.40
2022-11-10T21:36:53.482Z,12.46
2022-11-10T21:39:59.223Z,12.51
2022-11-10T21:43:05.706Z,12.34
2022-11-10T21:46:11.191Z,12.44
2022-11-10T21:49:17.048Z,12.45
2022-11-10T21:52:24.316Z,12.36
2022-11-10T21:55:30.110Z,12.41
2022-11-10T21:58:36.158Z,12.30
2022-11-10T22:01:41.751Z,12.31
2022-11-10T22:04:47.324Z,12.32
2022-11-10T22:07:54.348Z,12.22
2022-11-10T22:11:17.190Z,12.14
2022-11-10T22:14:40.062Z,12.07
2022-11-10T22:18:03.144Z,12.18
2022-11-10T22:21:09.532Z,12.15
2022-11-10T22:24:26.824Z,12.00
2022-11-10T22:27:32.624Z,12.10
2022-11-10T22:30:38.830Z,12.15
2022-11-10T22:33:44.613Z,12.16
2022-11-10T22:36:50.454Z,12.15
2022-11-10T22:40:16.563Z,12.12
2022-11-10T22:43:40.366Z,12.03
2022-11-10T22:46:48.179Z,12.04
2022-11-10T22:49:53.971Z,12.09
2022-11-10T22:52:59.662Z,12.14
2022-11-10T22:56:06.894Z,11.99
2022-11-10T22:59:13.947Z,11.98
2022-11-10T23:02:21.842Z,11.88
2022-11-10T23:05:29.889Z,11.83
2022-11-10T23:08:39.037Z,11.85
2022-11-10T23:11:45.694Z,11.91
2022-11-10T23:14:55.363Z,11.88
2022-11-10T23:18:06.314Z,11.69
2022-11-10T23:21:15.675Z,11.67
2022-11-10T23:24:24.653Z,11.67
2022-11-10T23:27:34.042Z,11.57
2022-11-10T23:30:39.692Z,11.56
2022-11-10T23:33:47.144Z,11.68
2022-11-10T23:36:52.931Z,11.65
2022-11-10T23:39:58.183Z,11.56
2022-11-10T23:43:05.322Z,11.46
2022-11-10T23:46:11.387Z,11.46
2022-11-10T23:49:16.875Z,11.30
2022-11-10T23:52:21.898Z,11.34
2022-11-10T23:55:27.476Z,11.19
2022-11-10T23:58:34.958Z,10.98
